Mesa, AZ

9:43 PM MST on July 07, 2015 (GMT -0700)
Park of the Canals | | Change Station
CLOSE
Current Station
Personal Weather Station
Location: Mesa, AZ
Elevation: 1257 ft
Nearby Weather Stations

Elev 1257 ft 33.44 °N, 111.82 °W | Updated 10 minutes ago

Clear
Clear
92.5 °F
Feels Like 90 °F
N
0.0
Wind Variable Wind from ENE

Today
High -- | Low -- °F
--% Chance of Precip.
Yesterday
High -- | Low -- °F
Precip. -- in
5:24 AM 7:40 PM
Waning Gibbous, 57% visible
Pressure 29.74 in
Visibility 40.0 miles
Clouds Few 11000 ft
Scattered Clouds 20000 ft
Heat Index 90 °F
Dew Point 55 °F
Humidity 28%
Rainfall 0.00 in
Snow Depth Not available.
UV 0 out of 12
Pollen 3.60 out of 12
Air Quality Not available.
Flu Activity Not available.
METAR KFFZ 080247Z 28006KT 40SM FEW110 SCT200 38/10 A2974

More Conditions Fewer Conditions

Pressure 29.74 in
Visibility 40.0 miles
Clouds Few 11000 ft
Scattered Clouds 20000 ft
Heat Index 90 °F
Dew Point 55 °F
Humidity 28%
Rainfall 0.00 in
Snow Depth Not available.
UV 0 out of 12
Pollen 3.60 out of 12
Air Quality Not available.
Flu Activity Not available.
METAR KFFZ 080247Z 28006KT 40SM FEW110 SCT200 38/10 A2974

More Conditions Fewer Conditions

10-Day Weather Forecast

×

Almanac

Astronomy

Jul. 07, 2015 Rise Set
Actual Time
Civil Twilight
Nautical Twilight
Astronomical Twilight
Moon
Length of Visible Light
Length of Day
Tomorrow will be .
, % of the Moon is Illuminated

Today's Extremes

State Highs State Lows

Community

WunderPhotos

Upload Photos

1,836,057 photos uploaded!

WunderBlogs® & News

Nearby

Air Quality

  Air Quality AQ Index Pollutant
Not available.

Snow Depth

Station Depth Elevation

Earthquake Activity

City Distance Mag. Time & Date
Minimum magnitude displayed is 2.5.

Coastal Water Temperatures

Place Temperature

Stations

Nearby Weather Stations

Station Location Temp. Windchill Dew Point Humidity Wind Precip. Elev Updated Type